sensor_id;sensor_type;location;lat;lon;timestamp;temperature;humidity
11087;DHT22;5597;47.588;9.642;2023-07-24T00:02:23;20.80;99.90
11087;DHT22;5597;47.588;9.642;2023-07-24T00:04:49;20.90;99.90
11087;DHT22;5597;47.588;9.642;2023-07-24T00:07:14;20.90;99.90
11087;DHT22;5597;47.588;9.642;2023-07-24T00:09:40;20.90;99.90
11087;DHT22;5597;47.588;9.642;2023-07-24T00:12:06;20.90;99.90
11087;DHT22;5597;47.588;9.642;2023-07-24T00:14:31;20.80;99.90
11087;DHT22;5597;47.588;9.642;2023-07-24T00:16:57;20.80;99.90
11087;DHT22;5597;47.588;9.642;2023-07-24T00:19:22;20.80;99.90
11087;DHT22;5597;47.588;9.642;2023-07-24T00:21:48;20.70;99.90
11087;DHT22;5597;47.588;9.642;2023-07-24T00:24:13;20.70;99.90
11087;DHT22;5597;47.588;9.642;2023-07-24T00:26:39;20.70;99.90
11087;DHT22;5597;47.588;9.642;2023-07-24T00:29:04;20.80;99.90
11087;DHT22;5597;47.588;9.642;2023-07-24T00:31:30;20.90;99.90
11087;DHT22;5597;47.588;9.642;2023-07-24T00:33:56;21.00;99.90
11087;DHT22;5597;47.588;9.642;2023-07-24T00:36:21;21.10;99.90
11087;DHT22;5597;47.588;9.642;2023-07-24T00:38:47;21.20;99.90
11087;DHT22;5597;47.588;9.642;2023-07-24T00:41:12;21.30;99.90
11087;DHT22;5597;47.588;9.642;2023-07-24T00:43:38;21.30;99.90
11087;DHT22;5597;47.588;9.642;2023-07-24T00:46:03;21.40;99.90
11087;DHT22;5597;47.588;9.642;2023-07-24T00:48:29;21.40;99.90
11087;DHT22;5597;47.588;9.642;2023-07-24T00:50:56;21.40;99.90
11087;DHT22;5597;47.588;9.642;2023-07-24T00:53:22;21.30;99.90
11087;DHT22;5597;47.588;9.642;2023-07-24T00:55:47;21.30;99.90
11087;DHT22;5597;47.588;9.642;2023-07-24T00:58:16;21.20;99.90
11087;DHT22;5597;47.588;9.642;2023-07-24T01:00:42;21.20;99.90
11087;DHT22;5597;47.588;9.642;2023-07-24T01:03:08;21.20;99.90
11087;DHT22;5597;47.588;9.642;2023-07-24T01:05:34;21.20;99.90
11087;DHT22;5597;47.588;9.642;2023-07-24T01:07:59;21.20;99.90
11087;DHT22;5597;47.588;9.642;2023-07-24T01:10:25;21.30;99.90
11087;DHT22;5597;47.588;9.642;2023-07-24T01:13:07;21.40;99.90
11087;DHT22;5597;47.588;9.642;2023-07-24T01:15:37;21.50;99.90
11087;DHT22;5597;47.588;9.642;2023-07-24T01:18:12;21.60;99.90
11087;DHT22;5597;47.588;9.642;2023-07-24T01:20:43;21.50;99.90
11087;DHT22;5597;47.588;9.642;2023-07-24T01:26:04;21.30;99.90
11087;DHT22;5597;47.588;9.642;2023-07-24T01:28:30;21.20;99.90
11087;DHT22;5597;47.588;9.642;2023-07-24T01:30:56;21.20;99.90
11087;DHT22;5597;47.588;9.642;2023-07-24T01:33:23;21.10;99.90
11087;DHT22;5597;47.588;9.642;2023-07-24T01:35:53;20.90;99.90
11087;DHT22;5597;47.588;9.642;2023-07-24T01:38:18;20.80;99.90
11087;DHT22;5597;47.588;9.642;2023-07-24T01:40:45;20.80;99.90
11087;DHT22;5597;47.588;9.642;2023-07-24T01:43:11;20.80;99.90
11087;DHT22;5597;47.588;9.642;2023-07-24T01:45:36;20.80;99.90
11087;DHT22;5597;47.588;9.642;2023-07-24T01:48:04;20.70;99.90
11087;DHT22;5597;47.588;9.642;2023-07-24T01:50:30;20.80;99.90
11087;DHT22;5597;47.588;9.642;2023-07-24T01:52:55;20.70;99.90
11087;DHT22;5597;47.588;9.642;2023-07-24T01:55:21;20.60;99.90
11087;DHT22;5597;47.588;9.642;2023-07-24T01:57:46;20.60;99.90
11087;DHT22;5597;47.588;9.642;2023-07-24T02:00:12;20.50;99.90
11087;DHT22;5597;47.588;9.642;2023-07-24T02:02:37;20.50;99.90
11087;DHT22;5597;47.588;9.642;2023-07-24T02:05:03;20.50;99.90
11087;DHT22;5597;47.588;9.642;2023-07-24T02:07:29;20.40;99.90
11087;DHT22;5597;47.588;9.642;2023-07-24T02:09:55;20.40;99.90
11087;DHT22;5597;47.588;9.642;2023-07-24T02:12:20;20.40;99.90
11087;DHT22;5597;47.588;9.642;2023-07-24T02:14:46;20.40;99.90
11087;DHT22;5597;47.588;9.642;2023-07-24T02:17:15;20.30;99.90
11087;DHT22;5597;47.588;9.642;2023-07-24T02:19:41;20.30;99.90
11087;DHT22;5597;47.588;9.642;2023-07-24T02:22:06;20.30;99.90
11087;DHT22;5597;47.588;9.642;2023-07-24T02:24:32;20.20;99.90
11087;DHT22;5597;47.588;9.642;2023-07-24T02:26:57;20.20;99.90
11087;DHT22;5597;47.588;9.642;2023-07-24T02:29:23;20.10;99.90
11087;DHT22;5597;47.588;9.642;2023-07-24T02:34:14;20.10;99.90
11087;DHT22;5597;47.588;9.642;2023-07-24T02:36:40;20.10;99.90
11087;DHT22;5597;47.588;9.642;2023-07-24T02:39:06;20.10;99.90
11087;DHT22;5597;47.588;9.642;2023-07-24T02:41:32;20.00;99.90
11087;DHT22;5597;47.588;9.642;2023-07-24T02:43:57;20.00;99.90
11087;DHT22;5597;47.588;9.642;2023-07-24T02:46:23;20.00;99.90
11087;DHT22;5597;47.588;9.642;2023-07-24T02:48:50;19.90;99.90
11087;DHT22;5597;47.588;9.642;2023-07-24T02:51:16;19.90;99.90
11087;DHT22;5597;47.588;9.642;2023-07-24T02:53:42;19.80;99.90
11087;DHT22;5597;47.588;9.642;2023-07-24T02:56:08;19.80;99.90
11087;DHT22;5597;47.588;9.642;2023-07-24T02:58:33;19.60;99.90
11087;DHT22;5597;47.588;9.642;2023-07-24T03:01:06;19.50;99.90
11087;DHT22;5597;47.588;9.642;2023-07-24T03:03:32;19.50;99.90
11087;DHT22;5597;47.588;9.642;2023-07-24T03:05:58;19.30;99.90
11087;DHT22;5597;47.588;9.642;2023-07-24T03:08:24;19.20;99.90
11087;DHT22;5597;47.588;9.642;2023-07-24T03:10:49;19.10;99.90
11087;DHT22;5597;47.588;9.642;2023-07-24T03:13:15;19.10;99.90
11087;DHT22;5597;47.588;9.642;2023-07-24T03:15:40;19.00;99.90
11087;DHT22;5597;47.588;9.642;2023-07-24T03:18:06;19.00;99.90
11087;DHT22;5597;47.588;9.642;2023-07-24T03:20:32;18.90;99.90
11087;DHT22;5597;47.588;9.642;2023-07-24T03:22:57;18.90;99.90
11087;DHT22;5597;47.588;9.642;2023-07-24T03:25:23;18.80;99.90
11087;DHT22;5597;47.588;9.642;2023-07-24T03:27:48;18.70;99.90
11087;DHT22;5597;47.588;9.642;2023-07-24T03:30:14;18.70;99.90
11087;DHT22;5597;47.588;9.642;2023-07-24T03:32:40;18.60;99.90
11087;DHT22;5597;47.588;9.642;2023-07-24T03:35:06;18.60;99.90
11087;DHT22;5597;47.588;9.642;2023-07-24T03:37:33;18.60;99.90
11087;DHT22;5597;47.588;9.642;2023-07-24T03:39:58;18.60;99.90
11087;DHT22;5597;47.588;9.642;2023-07-24T03:42:28;18.50;99.90
11087;DHT22;5597;47.588;9.642;2023-07-24T03:44:55;18.50;99.90
11087;DHT22;5597;47.588;9.642;2023-07-24T03:47:20;18.50;99.90
11087;DHT22;5597;47.588;9.642;2023-07-24T03:49:46;18.50;99.90
11087;DHT22;5597;47.588;9.642;2023-07-24T03:52:11;18.40;99.90
11087;DHT22;5597;47.588;9.642;2023-07-24T03:54:37;18.30;99.90
11087;DHT22;5597;47.588;9.642;2023-07-24T03:57:03;18.30;99.90
11087;DHT22;5597;47.588;9.642;2023-07-24T03:59:30;18.20;99.90
11087;DHT22;5597;47.588;9.642;2023-07-24T04:01:55;18.20;99.90
11087;DHT22;5597;47.588;9.642;2023-07-24T04:04:21;18.20;99.90
11087;DHT22;5597;47.588;9.642;2023-07-24T04:06:47;18.10;99.90
11087;DHT22;5597;47.588;9.642;2023-07-24T04:09:12;18.10;99.90
11087;DHT22;5597;47.588;9.642;2023-07-24T04:11:40;18.00;99.90
11087;DHT22;5597;47.588;9.642;2023-07-24T04:14:06;18.00;99.90
11087;DHT22;5597;47.588;9.642;2023-07-24T04:16:31;18.00;99.90
11087;DHT22;5597;47.588;9.642;2023-07-24T04:18:57;18.00;99.90
11087;DHT22;5597;47.588;9.642;2023-07-24T04:21:22;17.90;99.90
11087;DHT22;5597;47.588;9.642;2023-07-24T04:23:48;17.90;99.90
11087;DHT22;5597;47.588;9.642;2023-07-24T04:26:14;17.90;99.90
11087;DHT22;5597;47.588;9.642;2023-07-24T04:28:39;18.00;99.90
11087;DHT22;5597;47.588;9.642;2023-07-24T04:31:05;18.00;99.90
11087;DHT22;5597;47.588;9.642;2023-07-24T04:33:30;18.00;99.90
11087;DHT22;5597;47.588;9.642;2023-07-24T04:35:56;18.10;99.90
11087;DHT22;5597;47.588;9.642;2023-07-24T04:38:22;18.10;99.90
11087;DHT22;5597;47.588;9.642;2023-07-24T04:40:47;18.20;99.90
11087;DHT22;5597;47.588;9.642;2023-07-24T04:43:13;18.20;99.90
11087;DHT22;5597;47.588;9.642;2023-07-24T04:45:39;18.30;99.90
11087;DHT22;5597;47.588;9.642;2023-07-24T04:48:05;18.40;99.90
11087;DHT22;5597;47.588;9.642;2023-07-24T04:50:31;18.50;99.90
11087;DHT22;5597;47.588;9.642;2023-07-24T04:52:56;18.60;99.90
11087;DHT22;5597;47.588;9.642;2023-07-24T04:55:22;18.70;99.90
11087;DHT22;5597;47.588;9.642;2023-07-24T04:57:48;18.70;99.90
11087;DHT22;5597;47.588;9.642;2023-07-24T05:00:14;18.80;99.90
11087;DHT22;5597;47.588;9.642;2023-07-24T05:02:39;18.80;99.90
11087;DHT22;5597;47.588;9.642;2023-07-24T05:05:05;18.80;99.90
11087;DHT22;5597;47.588;9.642;2023-07-24T05:07:31;18.90;99.90
11087;DHT22;5597;47.588;9.642;2023-07-24T05:09:57;18.90;99.90
11087;DHT22;5597;47.588;9.642;2023-07-24T05:12:23;19.00;99.90
11087;DHT22;5597;47.588;9.642;2023-07-24T05:14:49;19.10;99.90
11087;DHT22;5597;47.588;9.642;2023-07-24T05:17:14;19.20;99.90
11087;DHT22;5597;47.588;9.642;2023-07-24T05:19:40;19.30;99.90
11087;DHT22;5597;47.588;9.642;2023-07-24T05:22:05;19.40;99.90
11087;DHT22;5597;47.588;9.642;2023-07-24T05:24:31;19.50;99.90
11087;DHT22;5597;47.588;9.642;2023-07-24T05:26:56;19.60;99.90
11087;DHT22;5597;47.588;9.642;2023-07-24T05:29:22;19.70;99.90
11087;DHT22;5597;47.588;9.642;2023-07-24T05:31:48;19.80;99.90
11087;DHT22;5597;47.588;9.642;2023-07-24T05:34:13;19.80;99.90
11087;DHT22;5597;47.588;9.642;2023-07-24T05:36:40;19.80;99.90
11087;DHT22;5597;47.588;9.642;2023-07-24T05:39:06;19.90;99.90
11087;DHT22;5597;47.588;9.642;2023-07-24T05:41:31;19.90;99.90
11087;DHT22;5597;47.588;9.642;2023-07-24T05:43:57;19.90;99.90
11087;DHT22;5597;47.588;9.642;2023-07-24T05:46:22;19.90;99.90
11087;DHT22;5597;47.588;9.642;2023-07-24T05:48:48;19.90;99.90
11087;DHT22;5597;47.588;9.642;2023-07-24T05:51:14;19.90;99.90
11087;DHT22;5597;47.588;9.642;2023-07-24T05:53:39;19.70;99.90
11087;DHT22;5597;47.588;9.642;2023-07-24T05:56:05;19.50;99.90
11087;DHT22;5597;47.588;9.642;2023-07-24T05:58:31;19.40;99.90
11087;DHT22;5597;47.588;9.642;2023-07-24T06:00:56;19.30;99.90
11087;DHT22;5597;47.588;9.642;2023-07-24T06:03:23;19.10;99.90
11087;DHT22;5597;47.588;9.642;2023-07-24T06:05:53;19.00;99.90
11087;DHT22;5597;47.588;9.642;2023-07-24T06:08:19;18.90;99.90
11087;DHT22;5597;47.588;9.642;2023-07-24T06:10:47;18.90;99.90
11087;DHT22;5597;47.588;9.642;2023-07-24T06:13:13;18.90;99.90
11087;DHT22;5597;47.588;9.642;2023-07-24T06:15:39;18.80;99.90
11087;DHT22;5597;47.588;9.642;2023-07-24T06:18:04;18.80;99.90
11087;DHT22;5597;47.588;9.642;2023-07-24T06:20:30;18.80;99.90
11087;DHT22;5597;47.588;9.642;2023-07-24T06:22:55;18.80;99.90
11087;DHT22;5597;47.588;9.642;2023-07-24T06:25:21;18.70;99.90
11087;DHT22;5597;47.588;9.642;2023-07-24T06:27:46;18.70;99.90
11087;DHT22;5597;47.588;9.642;2023-07-24T06:30:12;18.80;99.90
11087;DHT22;5597;47.588;9.642;2023-07-24T06:32:37;18.90;99.90
11087;DHT22;5597;47.588;9.642;2023-07-24T06:35:03;19.00;99.90
11087;DHT22;5597;47.588;9.642;2023-07-24T06:37:29;19.10;99.90
11087;DHT22;5597;47.588;9.642;2023-07-24T06:39:54;19.10;99.90
11087;DHT22;5597;47.588;9.642;2023-07-24T06:42:20;19.10;99.90
11087;DHT22;5597;47.588;9.642;2023-07-24T06:44:45;19.10;99.90
11087;DHT22;5597;47.588;9.642;2023-07-24T06:47:11;19.10;99.90
11087;DHT22;5597;47.588;9.642;2023-07-24T06:49:36;19.00;99.90
11087;DHT22;5597;47.588;9.642;2023-07-24T06:52:02;19.00;99.90
11087;DHT22;5597;47.588;9.642;2023-07-24T06:54:28;19.00;99.90
11087;DHT22;5597;47.588;9.642;2023-07-24T06:56:53;18.90;99.90
11087;DHT22;5597;47.588;9.642;2023-07-24T06:59:19;18.90;99.90
11087;DHT22;5597;47.588;9.642;2023-07-24T07:01:44;18.90;99.90
11087;DHT22;5597;47.588;9.642;2023-07-24T07:04:10;19.00;99.90
11087;DHT22;5597;47.588;9.642;2023-07-24T07:06:35;19.00;99.90
11087;DHT22;5597;47.588;9.642;2023-07-24T07:09:01;19.20;99.90
11087;DHT22;5597;47.588;9.642;2023-07-24T07:11:27;19.30;99.90
11087;DHT22;5597;47.588;9.642;2023-07-24T07:13:52;19.40;99.90
11087;DHT22;5597;47.588;9.642;2023-07-24T07:16:18;19.40;99.90
11087;DHT22;5597;47.588;9.642;2023-07-24T07:18:44;19.50;99.90
11087;DHT22;5597;47.588;9.642;2023-07-24T07:21:10;19.40;99.90
11087;DHT22;5597;47.588;9.642;2023-07-24T07:23:35;19.50;99.90
11087;DHT22;5597;47.588;9.642;2023-07-24T07:26:01;19.50;99.90
11087;DHT22;5597;47.588;9.642;2023-07-24T07:28:27;19.50;99.90
11087;DHT22;5597;47.588;9.642;2023-07-24T07:30:53;19.40;99.90
11087;DHT22;5597;47.588;9.642;2023-07-24T07:33:19;19.40;99.90
11087;DHT22;5597;47.588;9.642;2023-07-24T07:35:47;19.30;99.90
11087;DHT22;5597;47.588;9.642;2023-07-24T07:38:13;19.30;99.90
11087;DHT22;5597;47.588;9.642;2023-07-24T07:40:38;19.30;99.90
11087;DHT22;5597;47.588;9.642;2023-07-24T07:43:07;19.30;99.90
11087;DHT22;5597;47.588;9.642;2023-07-24T07:45:32;19.20;99.90
11087;DHT22;5597;47.588;9.642;2023-07-24T07:47:58;19.30;99.90
11087;DHT22;5597;47.588;9.642;2023-07-24T07:50:24;19.30;99.90
11087;DHT22;5597;47.588;9.642;2023-07-24T07:52:53;19.30;99.90
11087;DHT22;5597;47.588;9.642;2023-07-24T07:55:18;19.30;99.90
11087;DHT22;5597;47.588;9.642;2023-07-24T07:57:44;19.30;99.90
11087;DHT22;5597;47.588;9.642;2023-07-24T08:00:10;19.40;99.90
11087;DHT22;5597;47.588;9.642;2023-07-24T08:02:36;19.50;99.90
11087;DHT22;5597;47.588;9.642;2023-07-24T08:05:08;19.50;99.90
11087;DHT22;5597;47.588;9.642;2023-07-24T08:07:34;19.60;99.90
11087;DHT22;5597;47.588;9.642;2023-07-24T08:10:00;19.80;99.90
11087;DHT22;5597;47.588;9.642;2023-07-24T08:12:26;19.90;99.90
11087;DHT22;5597;47.588;9.642;2023-07-24T08:14:51;20.10;99.90
11087;DHT22;5597;47.588;9.642;2023-07-24T08:17:17;20.20;99.90
11087;DHT22;5597;47.588;9.642;2023-07-24T08:19:42;20.30;99.90
11087;DHT22;5597;47.588;9.642;2023-07-24T08:22:08;20.40;99.90
11087;DHT22;5597;47.588;9.642;2023-07-24T08:24:34;20.40;99.90
11087;DHT22;5597;47.588;9.642;2023-07-24T08:27:00;20.50;99.90
11087;DHT22;5597;47.588;9.642;2023-07-24T08:29:26;20.50;99.90
11087;DHT22;5597;47.588;9.642;2023-07-24T08:31:52;20.50;99.90
11087;DHT22;5597;47.588;9.642;2023-07-24T08:34:18;20.50;99.90
11087;DHT22;5597;47.588;9.642;2023-07-24T08:36:43;20.50;99.90
11087;DHT22;5597;47.588;9.642;2023-07-24T08:39:09;20.50;99.90
11087;DHT22;5597;47.588;9.642;2023-07-24T08:41:34;20.50;99.90
11087;DHT22;5597;47.588;9.642;2023-07-24T08:44:01;20.60;99.90
11087;DHT22;5597;47.588;9.642;2023-07-24T08:46:27;20.70;99.90
11087;DHT22;5597;47.588;9.642;2023-07-24T08:48:54;20.70;99.90
11087;DHT22;5597;47.588;9.642;2023-07-24T08:51:20;20.60;99.90
11087;DHT22;5597;47.588;9.642;2023-07-24T08:53:48;20.70;99.90
11087;DHT22;5597;47.588;9.642;2023-07-24T08:56:14;20.80;99.90
11087;DHT22;5597;47.588;9.642;2023-07-24T08:58:40;21.10;99.90
11087;DHT22;5597;47.588;9.642;2023-07-24T09:01:07;21.20;99.90
11087;DHT22;5597;47.588;9.642;2023-07-24T09:03:33;21.40;99.90
11087;DHT22;5597;47.588;9.642;2023-07-24T09:05:59;21.60;99.90
11087;DHT22;5597;47.588;9.642;2023-07-24T09:08:43;21.60;99.90
11087;DHT22;5597;47.588;9.642;2023-07-24T09:11:10;21.80;99.90
11087;DHT22;5597;47.588;9.642;2023-07-24T09:13:37;21.90;99.90
11087;DHT22;5597;47.588;9.642;2023-07-24T09:16:04;22.00;99.90
11087;DHT22;5597;47.588;9.642;2023-07-24T09:18:45;22.00;99.90
11087;DHT22;5597;47.588;9.642;2023-07-24T09:21:10;22.20;99.90
11087;DHT22;5597;47.588;9.642;2023-07-24T09:23:39;22.30;99.90
11087;DHT22;5597;47.588;9.642;2023-07-24T09:26:09;22.40;99.90
11087;DHT22;5597;47.588;9.642;2023-07-24T09:28:35;22.60;99.90
11087;DHT22;5597;47.588;9.642;2023-07-24T09:31:01;22.90;99.90
11087;DHT22;5597;47.588;9.642;2023-07-24T09:33:35;23.10;99.90
11087;DHT22;5597;47.588;9.642;2023-07-24T09:36:02;23.30;99.90
11087;DHT22;5597;47.588;9.642;2023-07-24T09:38:28;23.40;99.90
11087;DHT22;5597;47.588;9.642;2023-07-24T09:40:55;23.40;99.90
11087;DHT22;5597;47.588;9.642;2023-07-24T09:43:23;23.40;99.90
11087;DHT22;5597;47.588;9.642;2023-07-24T09:45:50;23.50;99.90
11087;DHT22;5597;47.588;9.642;2023-07-24T09:48:16;23.50;99.90
11087;DHT22;5597;47.588;9.642;2023-07-24T09:50:46;23.60;99.90
11087;DHT22;5597;47.588;9.642;2023-07-24T09:56:06;24.00;99.90
11087;DHT22;5597;47.588;9.642;2023-07-24T09:58:39;24.20;99.90
11087;DHT22;5597;47.588;9.642;2023-07-24T10:01:07;24.10;99.90
11087;DHT22;5597;47.588;9.642;2023-07-24T10:03:39;24.00;99.90
11087;DHT22;5597;47.588;9.642;2023-07-24T10:06:05;23.80;99.90
11087;DHT22;5597;47.588;9.642;2023-07-24T10:08:31;23.80;99.90
11087;DHT22;5597;47.588;9.642;2023-07-24T10:10:58;23.90;99.90
11087;DHT22;5597;47.588;9.642;2023-07-24T10:13:26;24.00;99.90
11087;DHT22;5597;47.588;9.642;2023-07-24T10:15:52;24.00;99.90
11087;DHT22;5597;47.588;9.642;2023-07-24T10:18:28;24.30;99.90
11087;DHT22;5597;47.588;9.642;2023-07-24T10:21:02;24.50;99.90
11087;DHT22;5597;47.588;9.642;2023-07-24T10:23:28;24.50;99.90
11087;DHT22;5597;47.588;9.642;2023-07-24T10:25:53;24.30;99.90
11087;DHT22;5597;47.588;9.642;2023-07-24T10:28:29;24.10;99.90
11087;DHT22;5597;47.588;9.642;2023-07-24T10:30:55;23.90;99.90
11087;DHT22;5597;47.588;9.642;2023-07-24T10:33:22;23.80;99.90
11087;DHT22;5597;47.588;9.642;2023-07-24T10:35:54;23.70;99.90
11087;DHT22;5597;47.588;9.642;2023-07-24T10:38:23;23.60;99.90
11087;DHT22;5597;47.588;9.642;2023-07-24T10:41:02;23.60;99.90
11087;DHT22;5597;47.588;9.642;2023-07-24T10:43:42;23.50;99.90
11087;DHT22;5597;47.588;9.642;2023-07-24T10:46:07;23.40;99.90
11087;DHT22;5597;47.588;9.642;2023-07-24T10:48:33;23.30;99.90
11087;DHT22;5597;47.588;9.642;2023-07-24T10:51:09;23.20;99.90
11087;DHT22;5597;47.588;9.642;2023-07-24T10:53:36;23.00;99.90
11087;DHT22;5597;47.588;9.642;2023-07-24T10:56:03;23.00;99.90
11087;DHT22;5597;47.588;9.642;2023-07-24T10:58:29;22.90;99.90
11087;DHT22;5597;47.588;9.642;2023-07-24T11:00:55;22.90;99.90
11087;DHT22;5597;47.588;9.642;2023-07-24T11:03:21;22.90;99.90
11087;DHT22;5597;47.588;9.642;2023-07-24T11:05:47;22.90;99.90
11087;DHT22;5597;47.588;9.642;2023-07-24T11:08:14;22.80;99.90
11087;DHT22;5597;47.588;9.642;2023-07-24T11:10:51;22.80;99.90
11087;DHT22;5597;47.588;9.642;2023-07-24T11:13:18;22.90;99.90
11087;DHT22;5597;47.588;9.642;2023-07-24T11:15:44;22.90;99.90
11087;DHT22;5597;47.588;9.642;2023-07-24T11:18:10;22.90;99.90
11087;DHT22;5597;47.588;9.642;2023-07-24T11:20:47;23.00;99.90
11087;DHT22;5597;47.588;9.642;2023-07-24T11:23:13;22.90;99.90
11087;DHT22;5597;47.588;9.642;2023-07-24T11:25:39;22.90;99.90
11087;DHT22;5597;47.588;9.642;2023-07-24T11:28:06;22.90;99.90
11087;DHT22;5597;47.588;9.642;2023-07-24T11:30:32;22.80;99.90
11087;DHT22;5597;47.588;9.642;2023-07-24T11:32:59;22.70;99.90
11087;DHT22;5597;47.588;9.642;2023-07-24T11:35:26;22.60;99.90
11087;DHT22;5597;47.588;9.642;2023-07-24T11:37:52;22.50;99.90
11087;DHT22;5597;47.588;9.642;2023-07-24T11:40:17;22.50;99.90
11087;DHT22;5597;47.588;9.642;2023-07-24T11:42:46;22.50;99.90
11087;DHT22;5597;47.588;9.642;2023-07-24T11:45:12;22.40;99.90
11087;DHT22;5597;47.588;9.642;2023-07-24T11:47:45;22.40;99.90
11087;DHT22;5597;47.588;9.642;2023-07-24T11:50:12;22.20;99.90
11087;DHT22;5597;47.588;9.642;2023-07-24T11:52:39;22.10;99.90
11087;DHT22;5597;47.588;9.642;2023-07-24T11:55:06;22.00;99.90
11087;DHT22;5597;47.588;9.642;2023-07-24T11:57:31;21.90;99.90
11087;DHT22;5597;47.588;9.642;2023-07-24T11:59:57;21.80;99.90
11087;DHT22;5597;47.588;9.642;2023-07-24T12:02:26;21.70;99.90
11087;DHT22;5597;47.588;9.642;2023-07-24T12:04:56;21.60;99.90
11087;DHT22;5597;47.588;9.642;2023-07-24T12:07:28;21.30;99.90
11087;DHT22;5597;47.588;9.642;2023-07-24T12:09:54;20.80;99.90
11087;DHT22;5597;47.588;9.642;2023-07-24T12:12:20;20.40;99.90
11087;DHT22;5597;47.588;9.642;2023-07-24T12:14:45;20.00;99.90
11087;DHT22;5597;47.588;9.642;2023-07-24T12:17:11;19.80;99.90
11087;DHT22;5597;47.588;9.642;2023-07-24T12:19:42;19.80;99.90
11087;DHT22;5597;47.588;9.642;2023-07-24T12:22:08;19.90;99.90
11087;DHT22;5597;47.588;9.642;2023-07-24T12:24:33;20.00;99.90
11087;DHT22;5597;47.588;9.642;2023-07-24T12:26:59;20.20;99.90
11087;DHT22;5597;47.588;9.642;2023-07-24T12:29:25;20.40;99.90
11087;DHT22;5597;47.588;9.642;2023-07-24T12:31:51;20.50;99.90
11087;DHT22;5597;47.588;9.642;2023-07-24T12:34:16;20.70;99.90
11087;DHT22;5597;47.588;9.642;2023-07-24T12:36:42;21.10;99.90
11087;DHT22;5597;47.588;9.642;2023-07-24T12:39:07;21.30;99.90
11087;DHT22;5597;47.588;9.642;2023-07-24T12:41:33;21.60;99.90
11087;DHT22;5597;47.588;9.642;2023-07-24T12:43:58;21.90;99.90
11087;DHT22;5597;47.588;9.642;2023-07-24T12:46:24;22.00;99.90
11087;DHT22;5597;47.588;9.642;2023-07-24T12:48:49;22.00;99.90
11087;DHT22;5597;47.588;9.642;2023-07-24T12:51:15;22.10;99.90
11087;DHT22;5597;47.588;9.642;2023-07-24T12:53:40;22.30;99.90
11087;DHT22;5597;47.588;9.642;2023-07-24T12:56:06;22.60;99.90
11087;DHT22;5597;47.588;9.642;2023-07-24T12:58:31;23.00;99.90
11087;DHT22;5597;47.588;9.642;2023-07-24T13:00:57;23.30;99.90
11087;DHT22;5597;47.588;9.642;2023-07-24T13:03:23;23.60;99.90
11087;DHT22;5597;47.588;9.642;2023-07-24T13:05:48;24.00;99.90
11087;DHT22;5597;47.588;9.642;2023-07-24T13:08:14;24.50;99.90
11087;DHT22;5597;47.588;9.642;2023-07-24T13:10:39;24.80;99.90
11087;DHT22;5597;47.588;9.642;2023-07-24T13:13:05;25.20;99.90
11087;DHT22;5597;47.588;9.642;2023-07-24T13:15:30;25.50;99.90
11087;DHT22;5597;47.588;9.642;2023-07-24T13:17:57;25.80;99.90
11087;DHT22;5597;47.588;9.642;2023-07-24T13:20:24;26.00;99.90
11087;DHT22;5597;47.588;9.642;2023-07-24T13:22:49;26.20;99.90
11087;DHT22;5597;47.588;9.642;2023-07-24T13:25:15;26.20;99.90
11087;DHT22;5597;47.588;9.642;2023-07-24T13:27:40;26.50;99.90
11087;DHT22;5597;47.588;9.642;2023-07-24T13:30:06;26.70;99.90
11087;DHT22;5597;47.588;9.642;2023-07-24T13:32:32;26.90;99.90
11087;DHT22;5597;47.588;9.642;2023-07-24T13:34:57;27.00;99.90
11087;DHT22;5597;47.588;9.642;2023-07-24T13:37:24;27.30;99.90
11087;DHT22;5597;47.588;9.642;2023-07-24T13:39:51;27.50;99.90
11087;DHT22;5597;47.588;9.642;2023-07-24T13:42:16;27.40;99.90
11087;DHT22;5597;47.588;9.642;2023-07-24T13:44:42;27.40;99.90
11087;DHT22;5597;47.588;9.642;2023-07-24T13:47:07;27.60;99.90
11087;DHT22;5597;47.588;9.642;2023-07-24T13:49:33;27.80;99.90
11087;DHT22;5597;47.588;9.642;2023-07-24T13:51:58;28.10;99.90
11087;DHT22;5597;47.588;9.642;2023-07-24T13:54:24;28.20;99.90
11087;DHT22;5597;47.588;9.642;2023-07-24T13:56:49;28.20;99.90
11087;DHT22;5597;47.588;9.642;2023-07-24T13:59:15;28.30;99.90
11087;DHT22;5597;47.588;9.642;2023-07-24T14:01:41;28.50;99.90
11087;DHT22;5597;47.588;9.642;2023-07-24T14:04:06;28.50;99.90
11087;DHT22;5597;47.588;9.642;2023-07-24T14:06:32;28.50;99.90
11087;DHT22;5597;47.588;9.642;2023-07-24T14:08:57;28.40;99.90
11087;DHT22;5597;47.588;9.642;2023-07-24T14:11:23;28.00;99.90
11087;DHT22;5597;47.588;9.642;2023-07-24T14:13:50;27.70;99.90
11087;DHT22;5597;47.588;9.642;2023-07-24T14:16:15;27.40;99.90
11087;DHT22;5597;47.588;9.642;2023-07-24T14:18:41;27.10;99.90
11087;DHT22;5597;47.588;9.642;2023-07-24T14:21:06;26.90;99.90
11087;DHT22;5597;47.588;9.642;2023-07-24T14:23:32;26.80;99.90
11087;DHT22;5597;47.588;9.642;2023-07-24T14:25:58;26.60;99.90
11087;DHT22;5597;47.588;9.642;2023-07-24T14:28:23;26.30;99.90
11087;DHT22;5597;47.588;9.642;2023-07-24T14:30:49;26.00;99.90
11087;DHT22;5597;47.588;9.642;2023-07-24T14:33:14;25.60;99.90
11087;DHT22;5597;47.588;9.642;2023-07-24T14:35:40;25.30;99.90
11087;DHT22;5597;47.588;9.642;2023-07-24T14:38:05;25.00;99.90
11087;DHT22;5597;47.588;9.642;2023-07-24T14:40:31;24.70;99.90
11087;DHT22;5597;47.588;9.642;2023-07-24T14:42:57;24.50;99.90
11087;DHT22;5597;47.588;9.642;2023-07-24T14:45:22;24.30;99.90
11087;DHT22;5597;47.588;9.642;2023-07-24T14:47:48;24.20;99.90
11087;DHT22;5597;47.588;9.642;2023-07-24T14:50:14;24.10;99.90
11087;DHT22;5597;47.588;9.642;2023-07-24T14:52:39;24.00;99.90
11087;DHT22;5597;47.588;9.642;2023-07-24T14:55:06;23.80;99.90
11087;DHT22;5597;47.588;9.642;2023-07-24T14:57:32;23.60;99.90
11087;DHT22;5597;47.588;9.642;2023-07-24T14:59:58;23.50;99.90
11087;DHT22;5597;47.588;9.642;2023-07-24T15:02:23;23.40;99.90
11087;DHT22;5597;47.588;9.642;2023-07-24T15:04:49;23.20;99.90
11087;DHT22;5597;47.588;9.642;2023-07-24T15:07:14;23.00;99.90
11087;DHT22;5597;47.588;9.642;2023-07-24T15:09:40;22.90;99.90
11087;DHT22;5597;47.588;9.642;2023-07-24T15:12:05;22.80;99.90
11087;DHT22;5597;47.588;9.642;2023-07-24T15:14:31;22.70;99.90
11087;DHT22;5597;47.588;9.642;2023-07-24T15:16:56;22.70;99.90
11087;DHT22;5597;47.588;9.642;2023-07-24T15:19:22;22.60;99.90
11087;DHT22;5597;47.588;9.642;2023-07-24T15:21:47;22.60;99.90
11087;DHT22;5597;47.588;9.642;2023-07-24T15:24:13;22.70;99.90
11087;DHT22;5597;47.588;9.642;2023-07-24T15:26:43;22.90;99.90
11087;DHT22;5597;47.588;9.642;2023-07-24T15:29:08;23.00;99.90
11087;DHT22;5597;47.588;9.642;2023-07-24T15:31:34;23.10;99.90
11087;DHT22;5597;47.588;9.642;2023-07-24T15:34:02;23.20;99.90
11087;DHT22;5597;47.588;9.642;2023-07-24T15:36:28;23.30;99.90
11087;DHT22;5597;47.588;9.642;2023-07-24T15:38:53;23.30;99.90
11087;DHT22;5597;47.588;9.642;2023-07-24T15:41:19;23.20;99.90
11087;DHT22;5597;47.588;9.642;2023-07-24T15:43:44;23.00;99.90
11087;DHT22;5597;47.588;9.642;2023-07-24T15:46:10;22.80;99.90
11087;DHT22;5597;47.588;9.642;2023-07-24T15:48:35;22.50;99.90